createdAt,value
2022-12-01T00:01:10.102Z,17.70
2022-12-01T00:03:37.366Z,15.13
2022-12-01T00:06:06.762Z,17.43
2022-12-01T00:08:34.325Z,15.83
2022-12-01T00:11:06.450Z,18.03
2022-12-01T00:24:35.578Z,17.03
2022-12-01T00:27:02.266Z,17.37
2022-12-01T00:29:28.925Z,18.30
2022-12-01T00:31:55.596Z,16.30
2022-12-01T00:34:25.141Z,18.93
2022-12-01T00:36:51.895Z,20.00
2022-12-01T00:39:18.562Z,16.97
2022-12-01T00:41:45.269Z,17.80
2022-12-01T00:44:12.002Z,17.67
2022-12-01T00:46:38.671Z,17.03
2022-12-01T00:49:06.100Z,17.10
2022-12-01T00:51:32.947Z,17.00
2022-12-01T00:53:59.660Z,17.70
2022-12-01T00:56:26.481Z,16.87
2022-12-01T00:58:53.151Z,18.20
2022-12-01T01:01:20.173Z,17.37
2022-12-01T01:03:46.911Z,16.40
2022-12-01T01:06:13.853Z,21.50
2022-12-01T01:08:41.287Z,17.43
2022-12-01T01:11:09.191Z,16.13
2022-12-01T01:13:36.866Z,17.47
2022-12-01T01:16:13.425Z,18.67
2022-12-01T01:18:40.138Z,18.97
2022-12-01T01:21:10.536Z,17.53
2022-12-01T01:23:38.023Z,17.17
2022-12-01T01:26:12.003Z,19.83
2022-12-01T01:28:41.681Z,18.10
2022-12-01T01:31:10.932Z,17.80
2022-12-01T01:33:37.857Z,19.73
2022-12-01T01:36:05.229Z,18.43
2022-12-01T01:38:33.299Z,17.60
2022-12-01T01:41:00.314Z,18.97
2022-12-01T01:43:47.872Z,18.47
2022-12-01T01:46:24.066Z,18.00
2022-12-01T01:49:00.037Z,18.80
2022-12-01T01:51:50.199Z,16.17
2022-12-01T01:54:19.858Z,16.60
2022-12-01T01:56:49.192Z,19.70
2022-12-01T01:59:20.552Z,17.07
2022-12-01T02:01:57.047Z,18.30
2022-12-01T02:04:25.001Z,18.10
2022-12-01T02:06:53.699Z,18.93
2022-12-01T02:09:20.468Z,17.27
2022-12-01T02:11:59.312Z,18.73
2022-12-01T02:15:00.779Z,17.40
2022-12-01T02:17:37.511Z,20.97
2022-12-01T02:20:21.866Z,20.27
2022-12-01T02:23:16.430Z,18.60
2022-12-01T02:26:11.911Z,18.07
2022-12-01T02:28:50.453Z,20.77
2022-12-01T02:31:29.164Z,20.97
2022-12-01T02:34:28.468Z,17.77
2022-12-01T02:37:24.914Z,19.43
2022-12-01T02:39:55.841Z,18.13
2022-12-01T02:42:50.995Z,19.63
2022-12-01T02:45:45.464Z,18.40
2022-12-01T02:48:17.478Z,17.43
2022-12-01T02:50:45.782Z,18.20
2022-12-01T02:53:15.606Z,17.23
2022-12-01T02:55:51.396Z,18.77
2022-12-01T02:58:18.319Z,20.17
2022-12-01T03:00:54.680Z,18.33
2022-12-01T03:03:51.883Z,17.77
2022-12-01T03:06:31.175Z,19.57
2022-12-01T03:09:12.826Z,18.53
2022-12-01T03:11:58.550Z,17.93
2022-12-01T03:14:39.620Z,18.67
2022-12-01T03:17:13.227Z,19.93
2022-12-01T03:19:58.824Z,18.20
2022-12-01T03:22:40.006Z,23.10
2022-12-01T03:25:09.019Z,17.33
2022-12-01T03:27:44.097Z,18.10
2022-12-01T03:30:17.847Z,19.03
2022-12-01T03:32:49.431Z,20.40
2022-12-01T03:35:33.160Z,18.93
2022-12-01T03:38:05.626Z,20.93
2022-12-01T03:40:36.649Z,18.37
2022-12-01T03:43:10.497Z,20.40
2022-12-01T03:45:55.299Z,20.67
2022-12-01T03:48:24.155Z,22.33
2022-12-01T03:51:08.342Z,23.27
2022-12-01T03:53:59.057Z,20.77
2022-12-01T03:56:31.889Z,20.23
2022-12-01T03:59:03.041Z,19.07
2022-12-01T04:01:36.562Z,19.20
2022-12-01T04:04:08.782Z,21.97
2022-12-01T04:06:35.774Z,23.33
2022-12-01T04:09:03.082Z,22.07
2022-12-01T04:11:48.824Z,20.23
2022-12-01T04:14:15.521Z,19.70
2022-12-01T04:16:42.234Z,21.50
2022-12-01T04:19:08.994Z,21.70
2022-12-01T04:21:35.632Z,18.63
2022-12-01T04:24:02.370Z,22.70
2022-12-01T04:26:34.236Z,22.77
2022-12-01T04:29:02.288Z,21.30
2022-12-01T04:31:29.053Z,24.00
2022-12-01T04:33:57.238Z,20.73
2022-12-01T04:36:24.623Z,20.30
2022-12-01T04:38:51.308Z,23.90
2022-12-01T04:41:18.187Z,21.10
2022-12-01T04:43:44.833Z,21.30
2022-12-01T04:46:12.049Z,22.00
2022-12-01T04:48:39.351Z,23.17
2022-12-01T04:51:08.083Z,22.37
2022-12-01T04:53:35.856Z,20.40
2022-12-01T04:56:03.074Z,22.97
2022-12-01T04:58:31.559Z,24.87
2022-12-01T05:01:03.285Z,21.13
2022-12-01T05:03:30.265Z,21.73
2022-12-01T05:06:09.267Z,21.03
2022-12-01T05:08:36.220Z,21.93
2022-12-01T05:11:03.492Z,22.80
2022-12-01T05:13:30.309Z,28.10
2022-12-01T05:16:19.922Z,20.80
2022-12-01T05:19:24.415Z,23.40
2022-12-01T05:21:52.158Z,23.07
2022-12-01T05:24:20.297Z,23.23
2022-12-01T05:26:47.239Z,22.83
2022-12-01T05:29:14.193Z,21.03
2022-12-01T05:31:41.242Z,24.10
2022-12-01T05:34:08.219Z,23.50
2022-12-01T05:36:34.884Z,20.63
2022-12-01T05:39:01.547Z,22.67
2022-12-01T05:41:28.324Z,21.40
2022-12-01T05:43:54.990Z,22.70
2022-12-01T05:46:21.665Z,24.37
2022-12-01T05:48:48.364Z,22.93
2022-12-01T05:51:16.553Z,20.07
2022-12-01T05:53:43.950Z,22.93
2022-12-01T05:56:11.233Z,22.57
2022-12-01T05:58:38.100Z,22.50
2022-12-01T06:01:05.016Z,20.03
2022-12-01T06:03:31.633Z,22.97
2022-12-01T06:05:58.321Z,25.67
2022-12-01T06:08:25.051Z,21.23
2022-12-01T06:10:51.730Z,21.53
2022-12-01T06:13:18.418Z,21.67
2022-12-01T06:15:45.052Z,21.50
2022-12-01T06:18:11.695Z,22.03
2022-12-01T06:20:38.347Z,22.97
2022-12-01T06:23:05.039Z,20.63
2022-12-01T06:25:31.725Z,19.93
2022-12-01T06:27:58.957Z,19.40
2022-12-01T06:30:26.223Z,22.27
2022-12-01T06:32:52.957Z,22.60
2022-12-01T06:35:20.402Z,23.53
2022-12-01T06:37:47.045Z,20.73
2022-12-01T06:40:14.107Z,22.13
2022-12-01T06:42:40.815Z,22.93
2022-12-01T06:45:07.922Z,19.93
2022-12-01T06:47:34.857Z,22.07
2022-12-01T06:50:02.173Z,26.83
2022-12-01T06:52:28.795Z,22.87
2022-12-01T06:54:55.464Z,24.53
2022-12-01T06:57:22.318Z,19.30
2022-12-01T06:59:49.553Z,18.33
2022-12-01T07:02:17.166Z,21.73
2022-12-01T07:04:43.851Z,22.43
2022-12-01T07:07:11.994Z,23.07
2022-12-01T07:09:39.423Z,22.87
2022-12-01T07:12:06.595Z,21.27
2022-12-01T07:14:33.321Z,20.97
2022-12-01T07:17:00.155Z,24.57
2022-12-01T07:19:26.978Z,23.07
2022-12-01T07:21:53.645Z,21.97
2022-12-01T07:24:20.350Z,21.33
2022-12-01T07:26:47.974Z,22.67
2022-12-01T07:29:14.618Z,24.23
2022-12-01T07:31:41.331Z,25.47
2022-12-01T07:34:12.145Z,22.63
2022-12-01T07:36:38.959Z,20.87
2022-12-01T07:39:06.524Z,19.57
2022-12-01T07:41:34.342Z,20.10
2022-12-01T07:44:01.175Z,21.57
2022-12-01T07:46:28.515Z,19.43
2022-12-01T07:48:56.062Z,23.07
2022-12-01T07:51:24.442Z,31.40
2022-12-01T07:53:52.394Z,20.27
2022-12-01T07:56:19.953Z,21.77
2022-12-01T07:58:46.816Z,25.73
2022-12-01T08:01:15.887Z,22.83
2022-12-01T08:03:42.958Z,23.00
2022-12-01T08:06:10.467Z,26.07
2022-12-01T08:08:39.855Z,22.23
2022-12-01T08:11:10.721Z,21.33
2022-12-01T08:13:38.874Z,23.20
2022-12-01T08:16:07.149Z,23.27
2022-12-01T08:18:39.576Z,20.43
2022-12-01T08:21:08.166Z,18.33
2022-12-01T08:23:35.170Z,21.00
2022-12-01T08:26:03.420Z,22.73
2022-12-01T08:28:30.113Z,19.93
2022-12-01T08:30:56.867Z,28.27
2022-12-01T08:33:23.972Z,20.53
2022-12-01T08:35:50.638Z,18.77
2022-12-01T08:38:17.336Z,22.87
2022-12-01T08:40:43.988Z,19.63
2022-12-01T08:43:23.061Z,20.77
2022-12-01T08:45:59.394Z,22.17
2022-12-01T08:48:29.767Z,21.60
2022-12-01T08:51:18.672Z,21.10
2022-12-01T08:53:48.985Z,23.43
2022-12-01T08:56:28.509Z,20.83
2022-12-01T08:58:55.593Z,22.40
2022-12-01T09:01:22.740Z,22.30
2022-12-01T09:04:04.902Z,21.17
2022-12-01T09:06:33.923Z,23.40
2022-12-01T09:09:00.775Z,25.97
2022-12-01T09:11:27.443Z,23.67
2022-12-01T09:13:54.859Z,29.77
2022-12-01T09:16:22.003Z,25.33
2022-12-01T09:18:48.998Z,22.23
2022-12-01T09:21:24.713Z,24.33
2022-12-01T09:23:51.710Z,27.40
2022-12-01T09:26:19.621Z,21.40
2022-12-01T09:28:47.600Z,21.53
2022-12-01T09:31:15.816Z,22.27
2022-12-01T09:33:42.558Z,20.87
2022-12-01T09:36:09.935Z,20.50
2022-12-01T09:38:38.015Z,22.03
2022-12-01T09:41:17.618Z,23.23
2022-12-01T09:43:55.952Z,21.20
2022-12-01T09:46:28.406Z,20.47
2022-12-01T09:48:57.242Z,20.87
2022-12-01T09:51:26.314Z,24.60
2022-12-01T09:53:58.506Z,23.37
2022-12-01T09:56:28.904Z,21.80
2022-12-01T09:58:59.598Z,25.17
2022-12-01T10:01:36.420Z,18.90
2022-12-01T10:04:13.020Z,24.43
2022-12-01T10:06:45.112Z,21.70
2022-12-01T10:09:43.507Z,21.13
2022-12-01T10:12:15.187Z,24.07
2022-12-01T10:14:45.997Z,26.53
2022-12-01T10:17:31.034Z,24.07
2022-12-01T10:20:19.084Z,23.40
2022-12-01T10:23:00.245Z,23.73
2022-12-01T10:25:31.567Z,21.50
2022-12-01T10:28:22.876Z,25.27
2022-12-01T10:30:52.038Z,22.63
2022-12-01T10:33:24.187Z,20.93
2022-12-01T10:35:51.841Z,25.23
2022-12-01T10:38:31.342Z,23.27
2022-12-01T10:41:01.152Z,22.83
2022-12-01T10:43:39.420Z,24.77
2022-12-01T10:46:25.617Z,23.90
2022-12-01T10:48:57.928Z,23.10
2022-12-01T10:51:27.064Z,20.50
2022-12-01T10:54:06.978Z,26.47
2022-12-01T10:56:34.407Z,22.93
2022-12-01T10:59:05.365Z,25.57
2022-12-01T11:01:36.444Z,24.63
2022-12-01T11:04:21.887Z,21.23
2022-12-01T11:06:50.361Z,22.07
2022-12-01T11:09:26.002Z,19.93
2022-12-01T11:12:01.691Z,19.23
2022-12-01T11:14:41.131Z,18.87
2022-12-01T11:17:30.485Z,22.90
2022-12-01T11:19:57.433Z,23.23
2022-12-01T11:22:28.768Z,22.20
2022-12-01T11:24:55.347Z,24.93
2022-12-01T11:27:25.222Z,19.37
2022-12-01T11:29:57.167Z,21.97
2022-12-01T11:32:26.942Z,20.43
2022-12-01T11:35:02.169Z,23.00
2022-12-01T11:37:50.413Z,22.10
2022-12-01T11:40:37.792Z,20.73
2022-12-01T11:43:06.605Z,24.13
2022-12-01T11:45:40.729Z,22.80
2022-12-01T11:48:18.969Z,20.37
2022-12-01T11:51:05.644Z,20.30
2022-12-01T11:53:35.073Z,21.73
2022-12-01T11:56:23.486Z,21.93
2022-12-01T11:59:03.172Z,22.87
2022-12-01T12:01:57.776Z,24.80
2022-12-01T12:04:39.474Z,23.93
2022-12-01T12:07:25.040Z,28.17
2022-12-01T12:10:17.004Z,21.47
2022-12-01T12:12:46.604Z,21.03
2022-12-01T12:15:13.183Z,20.70
2022-12-01T12:18:20.894Z,22.83
2022-12-01T12:21:17.178Z,25.53
2022-12-01T12:23:55.933Z,19.63
2022-12-01T12:26:32.840Z,21.63
2022-12-01T12:29:18.063Z,24.50
2022-12-01T12:31:54.556Z,22.07
2022-12-01T12:34:32.248Z,19.90
2022-12-01T12:37:06.114Z,19.33
2022-12-01T12:40:15.893Z,17.87
2022-12-01T12:43:20.069Z,19.40
2022-12-01T12:46:07.719Z,17.40
2022-12-01T12:49:03.879Z,20.27
2022-12-01T12:51:35.474Z,18.37
2022-12-01T12:54:20.607Z,21.10
2022-12-01T12:56:52.761Z,18.13
2022-12-01T12:59:26.075Z,20.27
2022-12-01T13:02:21.007Z,21.60
2022-12-01T13:05:26.084Z,18.97
2022-12-01T13:07:56.461Z,18.57
2022-12-01T13:10:48.861Z,16.60
2022-12-01T13:13:37.652Z,16.90
2022-12-01T13:16:09.604Z,16.33
2022-12-01T13:18:43.922Z,15.63
2022-12-01T13:21:19.130Z,17.33
2022-12-01T13:23:47.426Z,17.53
2022-12-01T13:26:15.606Z,16.00
2022-12-01T13:28:47.453Z,14.43
2022-12-01T13:31:15.620Z,16.87
2022-12-01T13:33:58.612Z,15.67
2022-12-01T13:39:35.726Z,13.57
2022-12-01T13:42:20.293Z,15.27
2022-12-01T13:44:59.943Z,13.67
2022-12-01T13:47:38.707Z,15.00
2022-12-01T13:50:42.769Z,16.53
2022-12-01T13:53:36.501Z,15.87
2022-12-01T13:56:03.114Z,14.70
2022-12-01T13:58:32.786Z,15.97
2022-12-01T14:01:21.844Z,18.07
2022-12-01T14:04:15.188Z,17.13
2022-12-01T14:06:49.104Z,14.93
2022-12-01T14:09:32.820Z,15.43
2022-12-01T14:12:02.951Z,16.37
2022-12-01T14:14:39.054Z,15.17
2022-12-01T14:17:12.261Z,16.30
2022-12-01T14:19:52.387Z,18.17
2022-12-01T14:22:39.019Z,17.97
2022-12-01T14:25:20.453Z,18.13
2022-12-01T14:27:53.230Z,15.53
2022-12-01T14:30:47.908Z,19.50
2022-12-01T14:33:39.556Z,16.20
2022-12-01T14:36:15.066Z,17.50
2022-12-01T14:38:42.661Z,14.17
2022-12-01T14:41:15.905Z,13.50
2022-12-01T14:44:04.541Z,16.73
2022-12-01T14:46:56.334Z,15.97
2022-12-01T14:49:32.166Z,13.60
2022-12-01T14:52:04.786Z,16.20
2022-12-01T14:54:46.374Z,15.63
2022-12-01T14:57:17.295Z,14.23
2022-12-01T14:59:44.790Z,16.13
2022-12-01T15:02:12.385Z,21.63
2022-12-01T15:05:09.643Z,20.53
2022-12-01T15:07:40.939Z,22.70
2022-12-01T15:10:24.389Z,21.97
2022-12-01T15:12:52.486Z,20.40
2022-12-01T15:15:25.209Z,27.03
2022-12-01T15:17:55.384Z,24.00
2022-12-01T15:20:29.709Z,21.90
2022-12-01T15:22:57.136Z,24.37
2022-12-01T15:25:25.274Z,21.57
2022-12-01T15:28:18.764Z,28.03
2022-12-01T15:30:54.037Z,20.27
2022-12-01T15:33:34.049Z,23.10
2022-12-01T15:36:04.166Z,18.27
2022-12-01T15:38:34.535Z,20.37
2022-12-01T15:43:57.345Z,18.07
2022-12-01T15:46:32.157Z,19.57
2022-12-01T15:49:20.365Z,19.50
2022-12-01T15:51:48.879Z,19.87
2022-12-01T15:54:20.476Z,19.63
2022-12-01T15:56:52.233Z,21.43
2022-12-01T15:59:38.021Z,22.37
2022-12-01T16:02:34.150Z,20.10
2022-12-01T16:05:04.381Z,20.40
2022-12-01T16:08:04.397Z,21.90
2022-12-01T16:10:36.614Z,19.67
2022-12-01T16:13:40.689Z,18.73
2022-12-01T16:16:20.484Z,17.87
2022-12-01T16:19:07.154Z,19.00
2022-12-01T16:21:56.196Z,16.70
2022-12-01T16:24:31.076Z,19.47
2022-12-01T16:27:04.645Z,15.57
2022-12-01T16:29:43.017Z,20.77
2022-12-01T16:32:21.662Z,17.63
2022-12-01T16:34:50.351Z,19.83
2022-12-01T16:37:17.495Z,16.77
2022-12-01T16:39:44.254Z,23.50
2022-12-01T16:42:16.180Z,19.40
2022-12-01T16:44:45.587Z,17.73
2022-12-01T16:47:21.748Z,17.93
2022-12-01T16:49:49.083Z,22.93
2022-12-01T16:52:42.888Z,18.27
2022-12-01T16:55:02.813Z,16.13
2022-12-01T16:57:29.424Z,15.70
2022-12-01T16:59:56.060Z,20.00
2022-12-01T17:02:22.810Z,17.03
2022-12-01T17:04:49.877Z,16.43
2022-12-01T17:07:16.647Z,18.50
2022-12-01T17:09:43.304Z,15.77
2022-12-01T17:12:09.946Z,18.63
2022-12-01T17:14:36.608Z,15.43
2022-12-01T17:17:03.295Z,17.70
2022-12-01T17:19:29.949Z,19.30
2022-12-01T17:21:56.968Z,14.23
2022-12-01T17:24:23.822Z,14.70
2022-12-01T17:26:50.452Z,14.90
2022-12-01T17:29:17.106Z,13.97
2022-12-01T17:31:43.891Z,16.60
2022-12-01T17:34:10.654Z,17.60
2022-12-01T17:36:37.405Z,16.87
2022-12-01T17:39:04.080Z,19.23
2022-12-01T17:41:35.556Z,21.27
2022-12-01T17:44:03.784Z,20.77
2022-12-01T17:46:31.418Z,20.23
2022-12-01T17:48:59.256Z,19.53
2022-12-01T17:51:25.947Z,20.13
2022-12-01T17:53:53.772Z,18.97
2022-12-01T17:56:20.455Z,22.77
2022-12-01T17:58:50.289Z,24.10
2022-12-01T18:01:19.120Z,20.37
2022-12-01T18:03:46.644Z,19.10
2022-12-01T18:06:14.029Z,21.27
2022-12-01T18:08:41.458Z,19.60
2022-12-01T18:11:11.725Z,24.90
2022-12-01T18:13:49.872Z,19.83
2022-12-01T18:16:19.659Z,23.47
2022-12-01T18:18:46.867Z,18.33
2022-12-01T18:21:15.626Z,22.00
2022-12-01T18:23:43.153Z,20.43
2022-12-01T18:26:15.686Z,20.50
2022-12-01T18:28:42.730Z,20.57
2022-12-01T18:31:12.288Z,21.90
2022-12-01T18:33:40.626Z,19.30
2022-12-01T18:36:13.269Z,20.33
2022-12-01T18:38:40.598Z,16.73
2022-12-01T18:41:07.693Z,14.30
2022-12-01T18:43:34.651Z,17.67
2022-12-01T18:46:03.663Z,15.23
2022-12-01T18:48:30.356Z,15.30
2022-12-01T18:51:00.757Z,15.00
2022-12-01T18:53:27.798Z,15.23
2022-12-01T18:55:54.446Z,15.17
2022-12-01T18:58:21.141Z,16.50
2022-12-01T19:00:47.876Z,16.37
2022-12-01T19:03:14.655Z,16.03
2022-12-01T19:05:41.389Z,15.07
2022-12-01T19:08:08.123Z,15.57
2022-12-01T19:10:34.821Z,13.93
2022-12-01T19:13:01.524Z,14.70
2022-12-01T19:15:28.168Z,15.23
2022-12-01T19:17:55.104Z,17.17
2022-12-01T19:20:21.740Z,15.87
2022-12-01T19:22:48.468Z,14.83
2022-12-01T19:25:15.237Z,15.30
2022-12-01T19:27:41.974Z,14.77
2022-12-01T19:30:08.949Z,14.97
2022-12-01T19:32:35.855Z,17.00
2022-12-01T19:35:04.155Z,14.67
2022-12-01T19:37:30.859Z,15.77
2022-12-01T19:39:57.518Z,15.43
2022-12-01T19:42:24.223Z,13.40
2022-12-01T19:44:51.037Z,14.87
2022-12-01T19:47:22.156Z,16.20
2022-12-01T19:49:49.251Z,14.67
2022-12-01T19:52:16.014Z,15.07
2022-12-01T19:54:43.045Z,15.00
2022-12-01T19:57:09.750Z,17.17
2022-12-01T19:59:36.410Z,15.53
2022-12-01T20:02:03.112Z,14.20
2022-12-01T20:04:29.899Z,16.07
2022-12-01T20:06:56.589Z,15.00
2022-12-01T20:09:23.233Z,13.90
2022-12-01T20:11:50.100Z,14.90
2022-12-01T20:14:16.798Z,12.40
2022-12-01T20:16:43.590Z,15.10
2022-12-01T20:19:10.323Z,14.23
2022-12-01T20:21:42.218Z,13.53
2022-12-01T20:24:12.817Z,12.57
2022-12-01T20:26:51.921Z,14.10
2022-12-01T20:29:24.904Z,13.60
2022-12-01T20:31:52.888Z,12.00
2022-12-01T20:34:22.859Z,13.20
2022-12-01T20:36:49.765Z,16.40
2022-12-01T20:39:16.516Z,14.27
2022-12-01T20:41:44.219Z,13.70
2022-12-01T20:44:11.739Z,13.60
2022-12-01T20:46:41.096Z,13.37
2022-12-01T20:49:08.243Z,13.33
2022-12-01T20:51:35.182Z,15.37
2022-12-01T20:54:27.356Z,13.80
2022-12-01T20:56:50.660Z,15.57
2022-12-01T20:59:17.363Z,15.37
2022-12-01T21:01:45.626Z,15.80
2022-12-01T21:04:12.326Z,13.97
2022-12-01T21:06:39.027Z,14.20
2022-12-01T21:09:07.382Z,17.27
2022-12-01T21:12:20.494Z,14.50
2022-12-01T21:15:13.536Z,15.03
2022-12-01T21:17:59.215Z,14.87
2022-12-01T21:20:27.998Z,18.63
2022-12-01T21:23:01.393Z,16.17
2022-12-01T21:25:28.232Z,14.43
2022-12-01T21:27:59.847Z,15.37
2022-12-01T21:30:26.751Z,15.83
2022-12-01T21:32:53.999Z,14.83
2022-12-01T21:35:24.697Z,17.53
2022-12-01T21:37:58.247Z,14.23
2022-12-01T21:40:26.072Z,13.23
2022-12-01T21:42:53.098Z,15.70
2022-12-01T21:45:27.690Z,15.10
2022-12-01T21:48:00.002Z,15.37
2022-12-01T21:50:27.386Z,13.27
2022-12-01T21:52:54.189Z,16.33
2022-12-01T21:55:20.791Z,13.57
2022-12-01T21:57:47.413Z,15.00
2022-12-01T22:00:31.370Z,16.23
2022-12-01T22:03:21.920Z,16.63
2022-12-01T22:06:13.729Z,14.47
2022-12-01T22:08:40.011Z,14.53
2022-12-01T22:11:09.409Z,14.97
2022-12-01T22:13:48.272Z,17.17
2022-12-01T22:16:42.464Z,16.90
2022-12-01T22:19:14.910Z,13.77
2022-12-01T22:21:45.575Z,15.27
2022-12-01T22:24:44.769Z,14.33
2022-12-01T22:27:20.420Z,15.20
2022-12-01T22:29:51.216Z,16.57
2022-12-01T22:32:23.776Z,16.60
2022-12-01T22:34:53.798Z,14.50
2022-12-01T22:37:29.077Z,13.90
2022-12-01T22:39:56.850Z,14.07
2022-12-01T22:42:41.403Z,15.40
2022-12-01T22:45:22.663Z,16.60
2022-12-01T22:47:49.508Z,17.73
2022-12-01T22:50:46.192Z,17.43
2022-12-01T22:53:18.001Z,15.70
2022-12-01T22:55:44.758Z,15.67
2022-12-01T22:58:40.872Z,14.70
2022-12-01T23:01:29.736Z,15.83
2022-12-01T23:04:24.904Z,18.40
2022-12-01T23:06:54.190Z,18.77
2022-12-01T23:09:22.340Z,21.90
2022-12-01T23:11:56.257Z,20.00
2022-12-01T23:14:23.906Z,19.10
2022-12-01T23:17:00.392Z,18.90
2022-12-01T23:19:27.062Z,19.53
2022-12-01T23:21:54.584Z,20.67
2022-12-01T23:24:21.916Z,22.63
2022-12-01T23:26:48.617Z,21.87
2022-12-01T23:29:15.489Z,24.97
2022-12-01T23:31:42.484Z,23.40
2022-12-01T23:34:16.853Z,22.40
2022-12-01T23:36:46.297Z,22.67
2022-12-01T23:39:15.296Z,21.80
2022-12-01T23:41:48.419Z,22.87
2022-12-01T23:44:22.938Z,24.37
2022-12-01T23:46:56.915Z,21.23
2022-12-01T23:49:29.879Z,26.57
2022-12-01T23:51:59.825Z,27.13
2022-12-01T23:54:31.984Z,21.87
2022-12-01T23:57:03.073Z,25.57
2022-12-01T23:59:31.992Z,22.50
